Kezdőlap
METAR-TAF:

METAR-TAF

Repülőterek :

Ocean megye, New Jersey, Amerikai Egyesült Államok

földrajzi szélesség: 39-55-39N, földrajzi hosszúság: 074-17-33W, magasság: 25 m

Jelenlegi meteorológiai megfigyelések

A jelentés 35 perccel ezelõtt készült, 17:56 UTC
Nyugat-északnyugati szél 9 kt széllökések: 14 kt
Hőmérséklet 13°C
Páratartalom 18%
Légköri nyomás 1022 hPa
Látótávolság: 16.1 km
Derült ég

METAR: KMJX 231756Z AUTO 29009G14KT 10SM CLR 13/M11 A3018 RMK AO2 SLP224 T01331111 10133 21072 58025

Idő: 13:31 (18:31 UTC)


TAF: hiányzik

Meteorológiai megfigyelések és előrejelzések több, mint 4000 repülőtéren (METAR és TAF jelentéseket).

A térképen piros és sárga pontok jelzik az elérhető meteorológiai állomásokat.

Mozgassa az egeret a pont fölött, hogy megjelenjen az állomás neve.

Azután kattintson az időjárási megfigyelések és előrejelzések megtekintéséhez.

A térkép megváltoztatása: kattintson a fekete keresztel jelölt zöld gombra ráközelítéshez, a vonallal jelölt zöld gombra távolításhoz, vagy a zöld nyilakra a szomszédos térképek eléréséhez.


METAR-TAF: